RYR36PL EGPH-LEBL
Flight info
| Callsign | RYR36PL |
|---|---|
| Flight time | N/A |
| Altitude | 35000 |
| Route | GOSAM P600 FENIK L612 NAVSO DCT AKOMU DCT VAMEB UL612 HON DCT SITET UN859 SOPIL DCT BALAN DCT EVPOK DCT NARAK DCT GAI DCT LOMRA DCT ROCAN DCT PUMAL |
| Aircraft | B738/M-SDE2E3FGHIRWXY/LB1 |
Departure
| Time | 2026-05-04 18:34 |
|---|---|
| Airport | Edinburgh Airport (EGPH) |
Arrival
| Time | N/A |
|---|---|
| Airport | Josep Tarradellas Barcelona-El Prat Airport (LEBL) |
| Time | Latitude | Longitude | Altitude | Speed | Heading |
|---|---|---|---|---|---|
| 2026-05-04 18:10 | 55.94923 | -3.36432 | 103 ft | 0 kts | 148° |
| 2026-05-04 18:28 | 55.94935 | -3.36446 | 103 ft | 2 kts | 148° |
| 2026-05-04 18:28 | 55.94947 | -3.36460 | 103 ft | 2 kts | 148° |
| 2026-05-04 18:28 | 55.94955 | -3.36469 | 103 ft | 2 kts | 148° |
| 2026-05-04 18:28 | 55.94966 | -3.36488 | 103 ft | 2 kts | 116° |
| 2026-05-04 18:29 | 55.94970 | -3.36513 | 103 ft | 2 kts | 91° |
| 2026-05-04 18:29 | 55.94968 | -3.36539 | 103 ft | 1 kts | 65° |
| 2026-05-04 18:29 | 55.94965 | -3.36548 | 103 ft | 1 kts | 56° |
| 2026-05-04 18:29 | 55.94963 | -3.36552 | 103 ft | 0 kts | 58° |
| 2026-05-04 18:31 | 55.94975 | -3.36517 | 103 ft | 7 kts | 59° |
| 2026-05-04 18:31 | 55.95011 | -3.36414 | 103 ft | 9 kts | 49° |
| 2026-05-04 18:32 | 55.95070 | -3.36403 | 103 ft | 8 kts | 356° |
| 2026-05-04 18:32 | 55.95116 | -3.36335 | 103 ft | 10 kts | 59° |
| 2026-05-04 18:32 | 55.95164 | -3.36191 | 103 ft | 16 kts | 59° |
| 2026-05-04 18:32 | 55.95235 | -3.35985 | 103 ft | 22 kts | 61° |
| 2026-05-04 18:33 | 55.95317 | -3.35740 | 103 ft | 23 kts | 59° |
| 2026-05-04 18:33 | 55.95403 | -3.35494 | 102 ft | 23 kts | 58° |
| 2026-05-04 18:33 | 55.95530 | -3.35475 | 100 ft | 20 kts | 332° |
| 2026-05-04 18:33 | 55.95543 | -3.35639 | 100 ft | 15 kts | 239° |
| 2026-05-04 18:34 | 55.95451 | -3.35916 | 101 ft | 52 kts | 241° |
| 2026-05-04 18:34 | 55.95144 | -3.36822 | 100 ft | 117 kts | 239° |
| 2026-05-04 18:34 | 55.94629 | -3.38342 | 157 ft | 162 kts | 239° |
| 2026-05-04 18:34 | 55.94056 | -3.40034 | 799 ft | 163 kts | 243° |
| 2026-05-04 18:35 | 55.93486 | -3.41756 | 1484 ft | 165 kts | 242° |
| 2026-05-04 18:35 | 55.92860 | -3.43525 | 1983 ft | 174 kts | 242° |
| 2026-05-04 18:35 | 55.92205 | -3.45397 | 2389 ft | 186 kts | 243° |
| 2026-05-04 18:35 | 55.91508 | -3.47428 | 2774 ft | 199 kts | 243° |
| 2026-05-04 18:36 | 55.90769 | -3.49607 | 3161 ft | 212 kts | 245° |
| 2026-05-04 18:36 | 55.90217 | -3.52129 | 3461 ft | 229 kts | 261° |
| 2026-05-04 18:36 | 55.89964 | -3.54989 | 4031 ft | 238 kts | 265° |
| 2026-05-04 18:36 | 55.89733 | -3.57986 | 4507 ft | 252 kts | 264° |
| 2026-05-04 18:37 | 55.89453 | -3.61092 | 5152 ft | 259 kts | 263° |
| 2026-05-04 18:37 | 55.89144 | -3.64220 | 5758 ft | 264 kts | 262° |
| 2026-05-04 18:37 | 55.88815 | -3.67470 | 5994 ft | 267 kts | 261° |
| 2026-05-04 18:37 | 55.88483 | -3.70706 | 6000 ft | 264 kts | 261° |
| 2026-05-04 18:38 | 55.88153 | -3.73943 | 6079 ft | 274 kts | 261° |
| 2026-05-04 18:38 | 55.87819 | -3.77241 | 6957 ft | 270 kts | 261° |
| 2026-05-04 18:38 | 55.87490 | -3.80489 | 7794 ft | 269 kts | 262° |
| 2026-05-04 18:38 | 55.87163 | -3.83763 | 8533 ft | 269 kts | 262° |
| 2026-05-04 18:39 | 55.86837 | -3.87035 | 9241 ft | 272 kts | 262° |
| 2026-05-04 18:39 | 55.86512 | -3.90299 | 9956 ft | 273 kts | 262° |
| 2026-05-04 18:39 | 55.86176 | -3.93654 | 10493 ft | 281 kts | 262° |
| 2026-05-04 18:39 | 55.85823 | -3.97173 | 10828 ft | 296 kts | 262° |
| 2026-05-04 18:40 | 55.85455 | -4.00841 | 11194 ft | 310 kts | 262° |
| 2026-05-04 18:40 | 55.85065 | -4.04706 | 11553 ft | 324 kts | 262° |
| 2026-05-04 18:40 | 55.84661 | -4.08708 | 11847 ft | 340 kts | 261° |
| 2026-05-04 18:40 | 55.83977 | -4.12799 | 12139 ft | 357 kts | 246° |
| 2026-05-04 18:41 | 55.82464 | -4.16366 | 12725 ft | 368 kts | 226° |
| 2026-05-04 18:41 | 55.80460 | -4.19230 | 13373 ft | 374 kts | 218° |
| 2026-05-04 18:41 | 55.78239 | -4.21661 | 14048 ft | 379 kts | 214° |
| 2026-05-04 18:41 | 55.75915 | -4.23856 | 14684 ft | 385 kts | 206° |
| 2026-05-04 18:42 | 55.73343 | -4.25216 | 15346 ft | 394 kts | 194° |
| 2026-05-04 18:42 | 55.70604 | -4.25767 | 15990 ft | 402 kts | 185° |
| 2026-05-04 18:42 | 55.67828 | -4.25271 | 16620 ft | 412 kts | 168° |
| 2026-05-04 18:42 | 55.65150 | -4.23358 | 17268 ft | 419 kts | 156° |
| 2026-05-04 18:43 | 55.62582 | -4.20900 | 17868 ft | 424 kts | 153° |
| 2026-05-04 18:43 | 55.59990 | -4.18267 | 18430 ft | 430 kts | 152° |
| 2026-05-04 18:43 | 55.57431 | -4.15635 | 19058 ft | 433 kts | 152° |
| 2026-05-04 18:43 | 55.54818 | -4.12974 | 19654 ft | 436 kts | 152° |
| 2026-05-04 18:44 | 55.52204 | -4.10356 | 20289 ft | 438 kts | 153° |
| 2026-05-04 18:44 | 55.50421 | -4.08589 | 20667 ft | 440 kts | 153° |
| 2026-05-04 18:44 | 55.46882 | -4.05116 | 21462 ft | 443 kts | 153° |
| 2026-05-04 18:44 | 55.44190 | -4.02495 | 22026 ft | 445 kts | 153° |
| 2026-05-04 18:45 | 55.41482 | -3.99869 | 22557 ft | 449 kts | 153° |
| 2026-05-04 18:45 | 55.38745 | -3.97221 | 23111 ft | 451 kts | 153° |
| 2026-05-04 18:45 | 55.35990 | -3.94561 | 23640 ft | 453 kts | 153° |
| 2026-05-04 18:45 | 55.33251 | -3.91921 | 24114 ft | 457 kts | 153° |
| 2026-05-04 18:46 | 55.30447 | -3.89222 | 24612 ft | 460 kts | 153° |
| 2026-05-04 18:46 | 55.27651 | -3.86536 | 25074 ft | 463 kts | 153° |
| 2026-05-04 18:46 | 55.24809 | -3.83809 | 25514 ft | 467 kts | 153° |